Portada
METAR-TAF:

METAR-TAF

Aeroports :

Nàltxik, Rússia

latitud: 43-30-46N, longitud: 043-38-12E, altitud: 445 m

Observació

L'informe es va fer fa 55 minuts, a les 18:00 UTC
Vent 4 kt del Oest/Sud-Oest
Temperatura 13°C
Humitat 58%
Pressió 1002 hPa
Visibilitat 10 km o més
Cel cobert

METAR: URMN 291800Z 24002MPS 9999 OVC/// 13/05 Q1002 R24/010070 NOSIG RMK QFE715

Hora: 22:55 (18:55 UTC)

Pronòstic

L'informe es va fer fa 1 hora i 55 minuts, a les 17:00 UTC
Pronòstic vàlid del 29 a les 18 UTC al 30 a les 03 UTC
Vent 6 kt del Oest
Visibilitat 10 km o més
Cel ennuvolat a una alçada de 2000 ft, Cumulonimbus.
Temporalment
l' 29 a les 21 UTC al 30 a les 03 UTC
Visibilitat: 3100 m
Núvols disperses a una alçada de 500 ft
Cel ennuvolat a una alçada de 1500 ft, Cumulonimbus.
xàfecs de pluja

TAF: URMN 291700Z 2918/3003 26003MPS 9999 BKN020CB TEMPO 2921/3003 3100 -SHRA SCT005 BKN015CB

Observacions i pronòstics meteorològics de més de 4000 aeroports (METAR i TAF).

Les estacions disponibles són els punts grocs i vermells al mapa.

Posi el ratolí al punt desitjat per veure el nom de l'estació.

Feu clic per veure les observacions i els pronòstics meteorològics.

Per canviar el mapa: feu clic els botons verds amb una creu de color negre per apropar; al botó verd amb un guió per allunyar la imatge; o en les fletxes verdes per a mapes adjacents.


METAR-TAF: